sensor_id;sensor_type;location;lat;lon;timestamp;P1;durP1;ratioP1;P2;durP2;ratioP2
57341;SDS011;43175;51.002;18.316;2024-03-25T00:01:03;19.40;;;7.50;;
57341;SDS011;43175;51.002;18.316;2024-03-25T00:03:28;15.80;;;7.40;;
57341;SDS011;43175;51.002;18.316;2024-03-25T00:05:54;14.60;;;7.00;;
57341;SDS011;43175;51.002;18.316;2024-03-25T00:08:20;15.70;;;7.60;;
57341;SDS011;43175;51.002;18.316;2024-03-25T00:10:45;15.60;;;7.00;;
57341;SDS011;43175;51.002;18.316;2024-03-25T00:13:11;14.30;;;6.70;;
57341;SDS011;43175;51.002;18.316;2024-03-25T00:15:36;13.30;;;6.80;;
57341;SDS011;43175;51.002;18.316;2024-03-25T00:18:03;14.30;;;7.10;;
57341;SDS011;43175;51.002;18.316;2024-03-25T00:20:29;15.60;;;6.70;;
57341;SDS011;43175;51.002;18.316;2024-03-25T00:22:54;13.80;;;7.00;;
57341;SDS011;43175;51.002;18.316;2024-03-25T00:25:20;14.30;;;6.90;;
57341;SDS011;43175;51.002;18.316;2024-03-25T00:27:45;14.30;;;6.80;;
57341;SDS011;43175;51.002;18.316;2024-03-25T00:30:11;14.00;;;6.70;;
57341;SDS011;43175;51.002;18.316;2024-03-25T00:32:37;14.30;;;6.80;;
57341;SDS011;43175;51.002;18.316;2024-03-25T00:35:02;15.00;;;7.10;;
57341;SDS011;43175;51.002;18.316;2024-03-25T00:37:28;14.70;;;7.00;;
57341;SDS011;43175;51.002;18.316;2024-03-25T00:39:54;15.40;;;7.50;;
57341;SDS011;43175;51.002;18.316;2024-03-25T00:42:19;16.80;;;7.30;;
57341;SDS011;43175;51.002;18.316;2024-03-25T00:44:44;15.30;;;7.20;;
57341;SDS011;43175;51.002;18.316;2024-03-25T00:47:10;16.40;;;7.40;;
57341;SDS011;43175;51.002;18.316;2024-03-25T00:49:36;15.80;;;7.50;;
57341;SDS011;43175;51.002;18.316;2024-03-25T00:52:01;14.30;;;7.10;;
57341;SDS011;43175;51.002;18.316;2024-03-25T00:54:27;14.70;;;7.20;;
57341;SDS011;43175;51.002;18.316;2024-03-25T00:56:53;15.10;;;7.20;;
57341;SDS011;43175;51.002;18.316;2024-03-25T00:59:18;15.30;;;7.50;;
57341;SDS011;43175;51.002;18.316;2024-03-25T01:01:44;15.10;;;7.20;;
57341;SDS011;43175;51.002;18.316;2024-03-25T01:04:10;15.60;;;7.20;;
57341;SDS011;43175;51.002;18.316;2024-03-25T01:06:35;15.10;;;7.00;;
57341;SDS011;43175;51.002;18.316;2024-03-25T01:09:00;16.30;;;8.00;;
57341;SDS011;43175;51.002;18.316;2024-03-25T01:11:26;16.30;;;8.00;;
57341;SDS011;43175;51.002;18.316;2024-03-25T01:13:52;17.00;;;7.80;;
57341;SDS011;43175;51.002;18.316;2024-03-25T01:16:18;15.80;;;7.30;;
57341;SDS011;43175;51.002;18.316;2024-03-25T01:18:43;14.70;;;7.20;;
57341;SDS011;43175;51.002;18.316;2024-03-25T01:21:08;16.70;;;7.90;;
57341;SDS011;43175;51.002;18.316;2024-03-25T01:23:34;15.90;;;7.40;;
57341;SDS011;43175;51.002;18.316;2024-03-25T01:26:00;16.00;;;7.50;;
57341;SDS011;43175;51.002;18.316;2024-03-25T01:28:25;17.30;;;7.30;;
57341;SDS011;43175;51.002;18.316;2024-03-25T01:30:51;15.60;;;7.50;;
57341;SDS011;43175;51.002;18.316;2024-03-25T01:33:16;16.10;;;7.90;;
57341;SDS011;43175;51.002;18.316;2024-03-25T01:35:42;17.60;;;7.70;;
57341;SDS011;43175;51.002;18.316;2024-03-25T01:38:08;15.40;;;7.20;;
57341;SDS011;43175;51.002;18.316;2024-03-25T01:40:33;15.90;;;7.90;;
57341;SDS011;43175;51.002;18.316;2024-03-25T01:42:59;16.50;;;7.80;;
57341;SDS011;43175;51.002;18.316;2024-03-25T01:45:26;15.20;;;7.70;;
57341;SDS011;43175;51.002;18.316;2024-03-25T01:47:52;14.10;;;7.40;;
57341;SDS011;43175;51.002;18.316;2024-03-25T01:50:20;15.30;;;7.40;;
57341;SDS011;43175;51.002;18.316;2024-03-25T01:52:47;16.30;;;7.20;;
57341;SDS011;43175;51.002;18.316;2024-03-25T01:55:14;15.90;;;7.80;;
57341;SDS011;43175;51.002;18.316;2024-03-25T01:57:42;15.00;;;7.00;;
57341;SDS011;43175;51.002;18.316;2024-03-25T02:00:08;15.20;;;7.30;;
57341;SDS011;43175;51.002;18.316;2024-03-25T02:02:34;20.00;;;7.40;;
57341;SDS011;43175;51.002;18.316;2024-03-25T02:05:01;15.50;;;7.30;;
57341;SDS011;43175;51.002;18.316;2024-03-25T02:07:27;16.50;;;7.80;;
57341;SDS011;43175;51.002;18.316;2024-03-25T02:09:53;16.30;;;7.80;;
57341;SDS011;43175;51.002;18.316;2024-03-25T02:12:19;16.20;;;7.10;;
57341;SDS011;43175;51.002;18.316;2024-03-25T02:14:45;15.40;;;7.70;;
57341;SDS011;43175;51.002;18.316;2024-03-25T02:17:11;14.90;;;7.10;;
57341;SDS011;43175;51.002;18.316;2024-03-25T02:19:37;14.20;;;6.90;;
57341;SDS011;43175;51.002;18.316;2024-03-25T02:22:03;14.00;;;6.90;;
57341;SDS011;43175;51.002;18.316;2024-03-25T02:24:29;15.40;;;6.90;;
57341;SDS011;43175;51.002;18.316;2024-03-25T02:26:55;14.10;;;7.10;;
57341;SDS011;43175;51.002;18.316;2024-03-25T02:29:21;13.70;;;6.90;;
57341;SDS011;43175;51.002;18.316;2024-03-25T02:31:46;15.70;;;7.30;;
57341;SDS011;43175;51.002;18.316;2024-03-25T02:34:12;14.40;;;6.60;;
57341;SDS011;43175;51.002;18.316;2024-03-25T02:36:38;13.60;;;6.40;;
57341;SDS011;43175;51.002;18.316;2024-03-25T02:39:03;12.40;;;6.10;;
57341;SDS011;43175;51.002;18.316;2024-03-25T02:41:29;13.70;;;6.50;;
57341;SDS011;43175;51.002;18.316;2024-03-25T02:43:56;13.90;;;6.60;;
57341;SDS011;43175;51.002;18.316;2024-03-25T02:46:22;14.30;;;6.30;;
57341;SDS011;43175;51.002;18.316;2024-03-25T02:48:47;13.30;;;6.40;;
57341;SDS011;43175;51.002;18.316;2024-03-25T02:51:13;13.00;;;6.30;;
57341;SDS011;43175;51.002;18.316;2024-03-25T02:53:38;12.60;;;6.00;;
57341;SDS011;43175;51.002;18.316;2024-03-25T02:56:04;13.50;;;6.40;;
57341;SDS011;43175;51.002;18.316;2024-03-25T02:58:30;13.20;;;6.40;;
57341;SDS011;43175;51.002;18.316;2024-03-25T03:00:55;13.80;;;6.20;;
57341;SDS011;43175;51.002;18.316;2024-03-25T03:03:21;12.50;;;5.80;;
57341;SDS011;43175;51.002;18.316;2024-03-25T03:05:46;14.50;;;6.30;;
57341;SDS011;43175;51.002;18.316;2024-03-25T03:08:11;12.60;;;5.80;;
57341;SDS011;43175;51.002;18.316;2024-03-25T03:10:37;13.30;;;6.30;;
57341;SDS011;43175;51.002;18.316;2024-03-25T03:13:03;12.70;;;6.30;;
57341;SDS011;43175;51.002;18.316;2024-03-25T03:15:28;13.70;;;6.60;;
57341;SDS011;43175;51.002;18.316;2024-03-25T03:17:54;12.70;;;6.40;;
57341;SDS011;43175;51.002;18.316;2024-03-25T03:20:20;12.40;;;5.80;;
57341;SDS011;43175;51.002;18.316;2024-03-25T03:22:45;13.10;;;6.10;;
57341;SDS011;43175;51.002;18.316;2024-03-25T03:25:11;13.40;;;6.30;;
57341;SDS011;43175;51.002;18.316;2024-03-25T03:27:36;12.20;;;5.70;;
57341;SDS011;43175;51.002;18.316;2024-03-25T03:30:02;14.50;;;6.30;;
57341;SDS011;43175;51.002;18.316;2024-03-25T03:32:28;13.60;;;6.00;;
57341;SDS011;43175;51.002;18.316;2024-03-25T03:34:53;12.70;;;6.00;;
57341;SDS011;43175;51.002;18.316;2024-03-25T03:37:18;13.50;;;6.90;;
57341;SDS011;43175;51.002;18.316;2024-03-25T03:39:44;12.60;;;6.20;;
57341;SDS011;43175;51.002;18.316;2024-03-25T03:42:09;12.50;;;6.30;;
57341;SDS011;43175;51.002;18.316;2024-03-25T03:44:35;13.60;;;6.20;;
57341;SDS011;43175;51.002;18.316;2024-03-25T03:47:00;12.30;;;6.00;;
57341;SDS011;43175;51.002;18.316;2024-03-25T03:49:25;13.40;;;5.50;;
57341;SDS011;43175;51.002;18.316;2024-03-25T03:51:51;12.00;;;5.80;;
57341;SDS011;43175;51.002;18.316;2024-03-25T03:54:16;11.40;;;5.10;;
57341;SDS011;43175;51.002;18.316;2024-03-25T03:56:42;11.20;;;5.10;;
57341;SDS011;43175;51.002;18.316;2024-03-25T03:59:07;13.10;;;5.20;;
57341;SDS011;43175;51.002;18.316;2024-03-25T04:01:33;11.70;;;5.30;;
57341;SDS011;43175;51.002;18.316;2024-03-25T04:03:58;11.30;;;5.30;;
57341;SDS011;43175;51.002;18.316;2024-03-25T04:06:23;11.90;;;5.50;;
57341;SDS011;43175;51.002;18.316;2024-03-25T04:08:49;12.60;;;5.80;;
57341;SDS011;43175;51.002;18.316;2024-03-25T04:11:14;12.00;;;5.60;;
57341;SDS011;43175;51.002;18.316;2024-03-25T04:13:40;12.10;;;5.30;;
57341;SDS011;43175;51.002;18.316;2024-03-25T04:16:05;11.50;;;5.70;;
57341;SDS011;43175;51.002;18.316;2024-03-25T04:18:31;11.80;;;5.40;;
57341;SDS011;43175;51.002;18.316;2024-03-25T04:20:57;11.70;;;5.90;;
57341;SDS011;43175;51.002;18.316;2024-03-25T04:23:23;11.90;;;5.50;;
57341;SDS011;43175;51.002;18.316;2024-03-25T04:25:49;13.50;;;5.90;;
57341;SDS011;43175;51.002;18.316;2024-03-25T04:28:14;11.60;;;5.20;;
57341;SDS011;43175;51.002;18.316;2024-03-25T04:30:40;12.20;;;5.50;;
57341;SDS011;43175;51.002;18.316;2024-03-25T04:33:06;11.80;;;5.70;;
57341;SDS011;43175;51.002;18.316;2024-03-25T04:35:31;11.60;;;5.30;;
57341;SDS011;43175;51.002;18.316;2024-03-25T04:37:57;11.50;;;5.30;;
57341;SDS011;43175;51.002;18.316;2024-03-25T04:40:22;11.30;;;5.00;;
57341;SDS011;43175;51.002;18.316;2024-03-25T04:42:48;11.00;;;5.20;;
57341;SDS011;43175;51.002;18.316;2024-03-25T04:45:14;12.10;;;5.20;;
57341;SDS011;43175;51.002;18.316;2024-03-25T04:47:39;13.10;;;5.00;;
57341;SDS011;43175;51.002;18.316;2024-03-25T04:50:05;15.50;;;5.30;;
57341;SDS011;43175;51.002;18.316;2024-03-25T04:52:31;11.80;;;5.40;;
57341;SDS011;43175;51.002;18.316;2024-03-25T04:54:56;11.30;;;5.30;;
57341;SDS011;43175;51.002;18.316;2024-03-25T04:57:22;13.90;;;5.70;;
57341;SDS011;43175;51.002;18.316;2024-03-25T04:59:48;11.70;;;5.70;;
57341;SDS011;43175;51.002;18.316;2024-03-25T05:02:13;10.90;;;5.10;;
57341;SDS011;43175;51.002;18.316;2024-03-25T05:04:39;11.50;;;5.00;;
57341;SDS011;43175;51.002;18.316;2024-03-25T05:07:04;12.60;;;6.10;;
57341;SDS011;43175;51.002;18.316;2024-03-25T05:09:30;12.70;;;6.10;;
57341;SDS011;43175;51.002;18.316;2024-03-25T05:11:55;12.60;;;6.10;;
57341;SDS011;43175;51.002;18.316;2024-03-25T05:14:21;13.70;;;6.00;;
57341;SDS011;43175;51.002;18.316;2024-03-25T05:16:46;12.80;;;5.80;;
57341;SDS011;43175;51.002;18.316;2024-03-25T05:19:11;13.00;;;6.30;;
57341;SDS011;43175;51.002;18.316;2024-03-25T05:21:37;15.40;;;6.20;;
57341;SDS011;43175;51.002;18.316;2024-03-25T05:24:02;13.30;;;6.20;;
57341;SDS011;43175;51.002;18.316;2024-03-25T05:26:28;12.40;;;5.70;;
57341;SDS011;43175;51.002;18.316;2024-03-25T05:28:54;11.90;;;5.60;;
57341;SDS011;43175;51.002;18.316;2024-03-25T05:31:20;12.10;;;5.90;;
57341;SDS011;43175;51.002;18.316;2024-03-25T05:33:46;12.00;;;6.20;;
57341;SDS011;43175;51.002;18.316;2024-03-25T05:36:11;13.10;;;6.20;;
57341;SDS011;43175;51.002;18.316;2024-03-25T05:38:37;13.10;;;6.00;;
57341;SDS011;43175;51.002;18.316;2024-03-25T05:41:02;11.80;;;5.50;;
57341;SDS011;43175;51.002;18.316;2024-03-25T05:43:27;12.90;;;6.20;;
57341;SDS011;43175;51.002;18.316;2024-03-25T05:45:53;12.30;;;5.40;;
57341;SDS011;43175;51.002;18.316;2024-03-25T05:48:19;11.90;;;5.80;;
57341;SDS011;43175;51.002;18.316;2024-03-25T05:50:45;13.20;;;5.80;;
57341;SDS011;43175;51.002;18.316;2024-03-25T05:53:10;12.50;;;6.00;;
57341;SDS011;43175;51.002;18.316;2024-03-25T05:55:35;12.40;;;6.20;;
57341;SDS011;43175;51.002;18.316;2024-03-25T05:58:01;12.60;;;6.10;;
57341;SDS011;43175;51.002;18.316;2024-03-25T06:00:28;12.90;;;5.90;;
57341;SDS011;43175;51.002;18.316;2024-03-25T06:02:55;11.80;;;5.60;;
57341;SDS011;43175;51.002;18.316;2024-03-25T06:05:21;13.30;;;6.00;;
57341;SDS011;43175;51.002;18.316;2024-03-25T06:07:46;12.90;;;6.10;;
57341;SDS011;43175;51.002;18.316;2024-03-25T06:10:12;11.90;;;5.80;;
57341;SDS011;43175;51.002;18.316;2024-03-25T06:12:37;11.20;;;5.20;;
57341;SDS011;43175;51.002;18.316;2024-03-25T06:15:03;10.90;;;4.80;;
57341;SDS011;43175;51.002;18.316;2024-03-25T06:17:29;10.70;;;4.60;;
57341;SDS011;43175;51.002;18.316;2024-03-25T06:19:54;11.10;;;4.90;;
57341;SDS011;43175;51.002;18.316;2024-03-25T06:22:19;11.40;;;5.10;;
57341;SDS011;43175;51.002;18.316;2024-03-25T06:24:45;12.60;;;5.60;;
57341;SDS011;43175;51.002;18.316;2024-03-25T06:27:10;13.60;;;6.20;;
57341;SDS011;43175;51.002;18.316;2024-03-25T06:29:36;16.30;;;6.60;;
57341;SDS011;43175;51.002;18.316;2024-03-25T06:32:01;15.00;;;6.60;;
57341;SDS011;43175;51.002;18.316;2024-03-25T06:34:45;13.80;;;6.30;;
57341;SDS011;43175;51.002;18.316;2024-03-25T06:37:10;12.50;;;6.90;;
57341;SDS011;43175;51.002;18.316;2024-03-25T06:39:36;13.30;;;7.20;;
57341;SDS011;43175;51.002;18.316;2024-03-25T06:42:02;16.40;;;8.70;;
57341;SDS011;43175;51.002;18.316;2024-03-25T06:44:27;14.20;;;8.10;;
57341;SDS011;43175;51.002;18.316;2024-03-25T06:46:52;13.80;;;7.10;;
57341;SDS011;43175;51.002;18.316;2024-03-25T06:49:18;14.00;;;6.60;;
57341;SDS011;43175;51.002;18.316;2024-03-25T06:51:44;12.60;;;6.60;;
57341;SDS011;43175;51.002;18.316;2024-03-25T06:54:09;15.00;;;8.00;;
57341;SDS011;43175;51.002;18.316;2024-03-25T06:56:34;19.80;;;11.10;;
57341;SDS011;43175;51.002;18.316;2024-03-25T06:59:00;15.30;;;8.90;;
57341;SDS011;43175;51.002;18.316;2024-03-25T07:01:25;16.10;;;7.10;;
57341;SDS011;43175;51.002;18.316;2024-03-25T07:03:51;15.40;;;8.00;;
57341;SDS011;43175;51.002;18.316;2024-03-25T07:06:18;13.30;;;6.50;;
57341;SDS011;43175;51.002;18.316;2024-03-25T07:08:44;13.60;;;7.30;;
57341;SDS011;43175;51.002;18.316;2024-03-25T07:11:09;12.80;;;6.90;;
57341;SDS011;43175;51.002;18.316;2024-03-25T07:13:34;14.40;;;7.20;;
57341;SDS011;43175;51.002;18.316;2024-03-25T07:16:01;14.40;;;7.30;;
57341;SDS011;43175;51.002;18.316;2024-03-25T07:18:26;16.90;;;9.60;;
57341;SDS011;43175;51.002;18.316;2024-03-25T07:20:52;14.30;;;8.30;;
57341;SDS011;43175;51.002;18.316;2024-03-25T07:23:17;17.40;;;10.10;;
57341;SDS011;43175;51.002;18.316;2024-03-25T07:25:43;15.20;;;9.00;;
57341;SDS011;43175;51.002;18.316;2024-03-25T07:28:09;15.30;;;9.00;;
57341;SDS011;43175;51.002;18.316;2024-03-25T07:30:34;14.90;;;8.20;;
57341;SDS011;43175;51.002;18.316;2024-03-25T07:32:59;18.30;;;10.70;;
57341;SDS011;43175;51.002;18.316;2024-03-25T07:35:25;16.60;;;9.10;;
57341;SDS011;43175;51.002;18.316;2024-03-25T07:37:51;13.90;;;7.80;;
57341;SDS011;43175;51.002;18.316;2024-03-25T07:40:17;13.30;;;6.60;;
57341;SDS011;43175;51.002;18.316;2024-03-25T07:42:43;12.70;;;6.40;;
57341;SDS011;43175;51.002;18.316;2024-03-25T07:45:08;11.60;;;6.00;;
57341;SDS011;43175;51.002;18.316;2024-03-25T07:47:34;12.40;;;6.20;;
57341;SDS011;43175;51.002;18.316;2024-03-25T07:50:00;11.40;;;5.80;;
57341;SDS011;43175;51.002;18.316;2024-03-25T07:52:25;11.70;;;5.70;;
57341;SDS011;43175;51.002;18.316;2024-03-25T07:54:51;10.70;;;5.10;;
57341;SDS011;43175;51.002;18.316;2024-03-25T07:57:19;10.30;;;4.70;;
57341;SDS011;43175;51.002;18.316;2024-03-25T07:59:45;8.80;;;3.20;;
57341;SDS011;43175;51.002;18.316;2024-03-25T08:02:11;9.40;;;3.30;;
57341;SDS011;43175;51.002;18.316;2024-03-25T08:04:36;9.50;;;3.50;;
57341;SDS011;43175;51.002;18.316;2024-03-25T08:07:01;10.90;;;3.80;;
57341;SDS011;43175;51.002;18.316;2024-03-25T08:09:28;9.20;;;3.40;;
57341;SDS011;43175;51.002;18.316;2024-03-25T08:11:53;10.10;;;3.90;;
57341;SDS011;43175;51.002;18.316;2024-03-25T08:14:19;10.00;;;3.40;;
57341;SDS011;43175;51.002;18.316;2024-03-25T08:16:45;8.90;;;3.40;;
57341;SDS011;43175;51.002;18.316;2024-03-25T08:19:10;10.10;;;3.90;;
57341;SDS011;43175;51.002;18.316;2024-03-25T08:21:35;9.50;;;3.50;;
57341;SDS011;43175;51.002;18.316;2024-03-25T08:24:01;9.50;;;3.30;;
57341;SDS011;43175;51.002;18.316;2024-03-25T08:26:26;9.20;;;3.40;;
57341;SDS011;43175;51.002;18.316;2024-03-25T08:28:52;10.50;;;4.10;;
57341;SDS011;43175;51.002;18.316;2024-03-25T08:31:17;9.80;;;4.00;;
57341;SDS011;43175;51.002;18.316;2024-03-25T08:33:43;9.40;;;3.70;;
57341;SDS011;43175;51.002;18.316;2024-03-25T08:36:08;10.50;;;4.10;;
57341;SDS011;43175;51.002;18.316;2024-03-25T08:38:34;12.20;;;4.50;;
57341;SDS011;43175;51.002;18.316;2024-03-25T08:40:59;9.50;;;4.10;;
57341;SDS011;43175;51.002;18.316;2024-03-25T08:43:25;9.80;;;4.20;;
57341;SDS011;43175;51.002;18.316;2024-03-25T08:45:51;12.50;;;4.50;;
57341;SDS011;43175;51.002;18.316;2024-03-25T08:48:16;9.80;;;3.90;;
57341;SDS011;43175;51.002;18.316;2024-03-25T08:50:42;10.90;;;4.10;;
57341;SDS011;43175;51.002;18.316;2024-03-25T08:53:08;9.80;;;4.00;;
57341;SDS011;43175;51.002;18.316;2024-03-25T08:58:55;9.50;;;3.40;;
57341;SDS011;43175;51.002;18.316;2024-03-25T09:01:20;9.30;;;3.80;;
57341;SDS011;43175;51.002;18.316;2024-03-25T09:03:46;9.20;;;3.60;;
57341;SDS011;43175;51.002;18.316;2024-03-25T09:06:11;10.80;;;3.90;;
57341;SDS011;43175;51.002;18.316;2024-03-25T09:08:37;10.10;;;4.30;;
57341;SDS011;43175;51.002;18.316;2024-03-25T09:11:22;10.30;;;3.70;;
57341;SDS011;43175;51.002;18.316;2024-03-25T09:13:50;10.70;;;4.50;;
57341;SDS011;43175;51.002;18.316;2024-03-25T09:16:15;9.60;;;3.70;;
57341;SDS011;43175;51.002;18.316;2024-03-25T09:18:41;8.40;;;3.30;;
57341;SDS011;43175;51.002;18.316;2024-03-25T09:21:06;10.10;;;4.00;;
57341;SDS011;43175;51.002;18.316;2024-03-25T09:23:32;9.00;;;3.20;;
57341;SDS011;43175;51.002;18.316;2024-03-25T09:25:57;8.40;;;3.20;;
57341;SDS011;43175;51.002;18.316;2024-03-25T09:28:23;11.10;;;4.60;;
57341;SDS011;43175;51.002;18.316;2024-03-25T09:30:48;8.90;;;3.40;;
57341;SDS011;43175;51.002;18.316;2024-03-25T09:33:15;9.70;;;3.90;;
57341;SDS011;43175;51.002;18.316;2024-03-25T09:35:40;9.50;;;3.90;;
57341;SDS011;43175;51.002;18.316;2024-03-25T09:38:06;9.30;;;3.80;;
57341;SDS011;43175;51.002;18.316;2024-03-25T09:40:32;10.10;;;4.10;;
57341;SDS011;43175;51.002;18.316;2024-03-25T09:43:01;9.80;;;4.40;;
57341;SDS011;43175;51.002;18.316;2024-03-25T09:45:27;10.40;;;4.70;;
57341;SDS011;43175;51.002;18.316;2024-03-25T09:47:54;10.90;;;5.00;;
57341;SDS011;43175;51.002;18.316;2024-03-25T09:50:20;11.20;;;4.90;;
57341;SDS011;43175;51.002;18.316;2024-03-25T09:52:46;10.80;;;4.40;;
57341;SDS011;43175;51.002;18.316;2024-03-25T09:55:11;10.50;;;4.60;;
57341;SDS011;43175;51.002;18.316;2024-03-25T09:57:37;10.00;;;4.50;;
57341;SDS011;43175;51.002;18.316;2024-03-25T10:00:06;11.40;;;4.70;;
57341;SDS011;43175;51.002;18.316;2024-03-25T10:02:32;12.20;;;5.40;;
57341;SDS011;43175;51.002;18.316;2024-03-25T10:04:59;12.50;;;6.30;;
57341;SDS011;43175;51.002;18.316;2024-03-25T10:07:25;13.30;;;6.60;;
57341;SDS011;43175;51.002;18.316;2024-03-25T10:09:51;13.20;;;6.40;;
57341;SDS011;43175;51.002;18.316;2024-03-25T10:12:16;12.20;;;5.90;;
57341;SDS011;43175;51.002;18.316;2024-03-25T10:14:42;12.60;;;6.30;;
57341;SDS011;43175;51.002;18.316;2024-03-25T10:17:08;13.00;;;6.30;;
57341;SDS011;43175;51.002;18.316;2024-03-25T10:19:33;12.70;;;6.20;;
57341;SDS011;43175;51.002;18.316;2024-03-25T10:22:06;12.40;;;6.20;;
57341;SDS011;43175;51.002;18.316;2024-03-25T10:27:03;12.40;;;6.50;;
57341;SDS011;43175;51.002;18.316;2024-03-25T10:29:29;13.70;;;6.60;;
57341;SDS011;43175;51.002;18.316;2024-03-25T10:32:01;12.30;;;6.40;;
57341;SDS011;43175;51.002;18.316;2024-03-25T10:34:27;13.30;;;7.20;;
57341;SDS011;43175;51.002;18.316;2024-03-25T10:36:53;11.60;;;6.30;;
57341;SDS011;43175;51.002;18.316;2024-03-25T10:39:21;11.50;;;5.70;;
57341;SDS011;43175;51.002;18.316;2024-03-25T10:41:50;11.30;;;5.40;;
57341;SDS011;43175;51.002;18.316;2024-03-25T10:44:16;10.60;;;4.80;;
57341;SDS011;43175;51.002;18.316;2024-03-25T10:46:43;10.20;;;4.30;;
57341;SDS011;43175;51.002;18.316;2024-03-25T10:49:12;9.90;;;4.30;;
57341;SDS011;43175;51.002;18.316;2024-03-25T10:51:39;10.90;;;4.60;;
57341;SDS011;43175;51.002;18.316;2024-03-25T10:54:06;9.70;;;4.10;;
57341;SDS011;43175;51.002;18.316;2024-03-25T10:56:32;9.20;;;3.70;;
57341;SDS011;43175;51.002;18.316;2024-03-25T10:58:58;9.60;;;3.80;;
57341;SDS011;43175;51.002;18.316;2024-03-25T11:01:23;9.20;;;3.50;;
57341;SDS011;43175;51.002;18.316;2024-03-25T11:03:49;8.60;;;3.20;;
57341;SDS011;43175;51.002;18.316;2024-03-25T11:06:15;8.50;;;3.50;;
57341;SDS011;43175;51.002;18.316;2024-03-25T11:08:42;8.50;;;3.50;;
57341;SDS011;43175;51.002;18.316;2024-03-25T11:11:11;9.50;;;4.20;;
57341;SDS011;43175;51.002;18.316;2024-03-25T11:13:37;9.00;;;3.50;;
57341;SDS011;43175;51.002;18.316;2024-03-25T11:16:03;9.10;;;3.70;;
57341;SDS011;43175;51.002;18.316;2024-03-25T11:18:29;9.80;;;4.00;;
57341;SDS011;43175;51.002;18.316;2024-03-25T11:21:00;9.60;;;4.00;;
57341;SDS011;43175;51.002;18.316;2024-03-25T11:23:26;8.30;;;3.20;;
57341;SDS011;43175;51.002;18.316;2024-03-25T11:25:54;8.50;;;3.20;;
57341;SDS011;43175;51.002;18.316;2024-03-25T11:28:26;7.50;;;2.80;;
57341;SDS011;43175;51.002;18.316;2024-03-25T11:30:52;7.20;;;2.60;;
57341;SDS011;43175;51.002;18.316;2024-03-25T11:33:17;8.40;;;3.00;;
57341;SDS011;43175;51.002;18.316;2024-03-25T11:35:43;9.40;;;3.30;;
57341;SDS011;43175;51.002;18.316;2024-03-25T11:38:08;10.10;;;3.50;;
57341;SDS011;43175;51.002;18.316;2024-03-25T11:40:34;7.20;;;2.60;;
57341;SDS011;43175;51.002;18.316;2024-03-25T11:43:00;7.40;;;2.30;;
57341;SDS011;43175;51.002;18.316;2024-03-25T11:45:26;8.40;;;2.80;;
57341;SDS011;43175;51.002;18.316;2024-03-25T11:47:51;7.70;;;2.60;;
57341;SDS011;43175;51.002;18.316;2024-03-25T11:50:18;8.20;;;2.60;;
57341;SDS011;43175;51.002;18.316;2024-03-25T11:52:44;8.40;;;3.00;;
57341;SDS011;43175;51.002;18.316;2024-03-25T11:55:10;8.60;;;3.00;;
57341;SDS011;43175;51.002;18.316;2024-03-25T11:57:37;9.30;;;3.40;;
57341;SDS011;43175;51.002;18.316;2024-03-25T12:00:03;9.50;;;3.70;;
57341;SDS011;43175;51.002;18.316;2024-03-25T12:02:32;9.20;;;3.50;;
57341;SDS011;43175;51.002;18.316;2024-03-25T12:04:57;9.20;;;3.60;;
57341;SDS011;43175;51.002;18.316;2024-03-25T12:07:23;9.50;;;3.90;;
57341;SDS011;43175;51.002;18.316;2024-03-25T12:09:48;9.40;;;3.90;;
57341;SDS011;43175;51.002;18.316;2024-03-25T12:12:32;10.40;;;4.70;;
57341;SDS011;43175;51.002;18.316;2024-03-25T12:15:00;9.80;;;4.10;;
57341;SDS011;43175;51.002;18.316;2024-03-25T12:17:28;10.00;;;4.40;;
57341;SDS011;43175;51.002;18.316;2024-03-25T12:20:01;12.60;;;4.40;;
57341;SDS011;43175;51.002;18.316;2024-03-25T12:22:30;10.20;;;4.10;;
57341;SDS011;43175;51.002;18.316;2024-03-25T12:24:57;9.80;;;4.40;;
57341;SDS011;43175;51.002;18.316;2024-03-25T12:27:22;10.00;;;4.20;;
57341;SDS011;43175;51.002;18.316;2024-03-25T12:29:56;9.80;;;4.30;;
57341;SDS011;43175;51.002;18.316;2024-03-25T12:32:22;9.90;;;4.20;;
57341;SDS011;43175;51.002;18.316;2024-03-25T12:34:55;10.40;;;4.10;;
57341;SDS011;43175;51.002;18.316;2024-03-25T12:37:20;9.20;;;3.70;;
57341;SDS011;43175;51.002;18.316;2024-03-25T12:39:49;8.80;;;3.10;;
57341;SDS011;43175;51.002;18.316;2024-03-25T12:42:14;8.10;;;2.80;;
57341;SDS011;43175;51.002;18.316;2024-03-25T12:44:40;9.30;;;3.20;;
57341;SDS011;43175;51.002;18.316;2024-03-25T12:47:05;9.30;;;3.00;;
57341;SDS011;43175;51.002;18.316;2024-03-25T12:49:31;8.00;;;2.70;;
57341;SDS011;43175;51.002;18.316;2024-03-25T12:51:57;11.50;;;4.10;;
57341;SDS011;43175;51.002;18.316;2024-03-25T12:54:22;10.20;;;3.60;;
57341;SDS011;43175;51.002;18.316;2024-03-25T12:56:48;9.70;;;3.60;;
57341;SDS011;43175;51.002;18.316;2024-03-25T12:59:14;10.30;;;3.60;;
57341;SDS011;43175;51.002;18.316;2024-03-25T13:01:39;9.60;;;3.50;;
57341;SDS011;43175;51.002;18.316;2024-03-25T13:04:06;10.90;;;3.70;;
57341;SDS011;43175;51.002;18.316;2024-03-25T13:06:31;10.20;;;3.40;;
57341;SDS011;43175;51.002;18.316;2024-03-25T13:08:57;8.60;;;3.20;;
57341;SDS011;43175;51.002;18.316;2024-03-25T13:11:22;8.60;;;3.20;;
57341;SDS011;43175;51.002;18.316;2024-03-25T13:13:48;8.80;;;3.60;;
57341;SDS011;43175;51.002;18.316;2024-03-25T13:16:13;8.50;;;3.10;;
57341;SDS011;43175;51.002;18.316;2024-03-25T13:18:38;9.90;;;3.40;;
57341;SDS011;43175;51.002;18.316;2024-03-25T13:21:04;9.20;;;3.40;;
57341;SDS011;43175;51.002;18.316;2024-03-25T13:23:29;8.30;;;3.30;;
57341;SDS011;43175;51.002;18.316;2024-03-25T13:25:55;8.50;;;3.20;;
57341;SDS011;43175;51.002;18.316;2024-03-25T13:28:21;9.00;;;3.60;;
57341;SDS011;43175;51.002;18.316;2024-03-25T13:30:47;8.80;;;3.30;;
57341;SDS011;43175;51.002;18.316;2024-03-25T13:33:12;8.80;;;3.20;;
57341;SDS011;43175;51.002;18.316;2024-03-25T13:35:38;8.40;;;3.20;;
57341;SDS011;43175;51.002;18.316;2024-03-25T13:38:03;9.10;;;3.20;;
57341;SDS011;43175;51.002;18.316;2024-03-25T13:40:29;9.60;;;3.20;;
57341;SDS011;43175;51.002;18.316;2024-03-25T13:42:54;9.00;;;3.30;;
57341;SDS011;43175;51.002;18.316;2024-03-25T13:45:20;7.70;;;2.50;;
57341;SDS011;43175;51.002;18.316;2024-03-25T13:47:45;7.80;;;2.50;;
57341;SDS011;43175;51.002;18.316;2024-03-25T13:50:11;7.30;;;2.50;;
57341;SDS011;43175;51.002;18.316;2024-03-25T13:52:36;7.00;;;2.50;;
57341;SDS011;43175;51.002;18.316;2024-03-25T13:55:02;5.50;;;2.10;;
57341;SDS011;43175;51.002;18.316;2024-03-25T13:57:27;5.10;;;1.80;;
57341;SDS011;43175;51.002;18.316;2024-03-25T13:59:53;5.40;;;1.90;;
57341;SDS011;43175;51.002;18.316;2024-03-25T14:02:18;5.10;;;1.90;;
57341;SDS011;43175;51.002;18.316;2024-03-25T14:04:44;5.60;;;2.00;;
57341;SDS011;43175;51.002;18.316;2024-03-25T14:07:09;5.40;;;1.90;;
57341;SDS011;43175;51.002;18.316;2024-03-25T14:09:35;6.80;;;2.00;;
57341;SDS011;43175;51.002;18.316;2024-03-25T14:12:00;4.80;;;1.90;;
57341;SDS011;43175;51.002;18.316;2024-03-25T14:14:25;6.20;;;2.00;;
57341;SDS011;43175;51.002;18.316;2024-03-25T14:16:51;7.90;;;2.50;;
57341;SDS011;43175;51.002;18.316;2024-03-25T14:19:17;10.50;;;4.00;;
57341;SDS011;43175;51.002;18.316;2024-03-25T14:21:43;10.40;;;3.60;;
57341;SDS011;43175;51.002;18.316;2024-03-25T14:24:08;10.80;;;3.60;;